createdAt,value
2023-07-12T00:01:23.458Z,55.56
2023-07-12T00:03:51.248Z,55.59
2023-07-12T00:06:35.581Z,55.34
2023-07-12T00:09:02.768Z,54.89
2023-07-12T00:11:29.899Z,54.43
2023-07-12T00:13:57.345Z,54.74
2023-07-12T00:16:27.329Z,55.13
2023-07-12T00:18:59.258Z,55.14
2023-07-12T00:21:28.773Z,54.69
2023-07-12T00:24:01.761Z,54.46
2023-07-12T00:26:31.597Z,54.92
2023-07-12T00:29:02.070Z,54.75
2023-07-12T00:31:31.499Z,54.98
2023-07-12T00:33:58.772Z,54.69
2023-07-12T00:36:29.369Z,54.75
2023-07-12T00:38:59.469Z,54.31
2023-07-12T00:41:48.910Z,55.48
2023-07-12T00:44:24.573Z,55.23
2023-07-12T00:46:59.000Z,56.75
2023-07-12T00:49:26.959Z,64.56
2023-07-12T00:52:06.117Z,64.27
2023-07-12T00:55:03.060Z,64.77
2023-07-12T00:57:33.221Z,65.29
2023-07-12T01:00:06.576Z,63.90
2023-07-12T01:02:34.056Z,62.00
2023-07-12T01:05:02.840Z,61.08
2023-07-12T01:07:32.262Z,58.74
2023-07-12T01:09:59.738Z,56.84
2023-07-12T01:12:26.870Z,55.27
2023-07-12T01:14:54.231Z,54.60
2023-07-12T01:17:24.571Z,55.50
2023-07-12T01:19:51.893Z,54.12
2023-07-12T01:22:19.220Z,62.10
2023-07-12T01:24:47.321Z,65.84
2023-07-12T01:27:18.080Z,66.94
2023-07-12T01:29:46.996Z,66.14
2023-07-12T01:32:15.405Z,61.75
2023-07-12T01:34:46.188Z,60.10
2023-07-12T01:37:14.408Z,59.31
2023-07-12T01:39:41.899Z,57.52
2023-07-12T01:42:11.724Z,57.89
2023-07-12T01:44:38.967Z,57.83
2023-07-12T01:47:06.071Z,57.89
2023-07-12T01:49:34.239Z,58.10
2023-07-12T01:52:05.942Z,60.60
2023-07-12T01:54:38.737Z,60.80
2023-07-12T01:57:07.387Z,61.38
2023-07-12T01:59:36.584Z,62.72
2023-07-12T02:02:07.010Z,63.78
2023-07-12T02:04:43.795Z,64.54
2023-07-12T02:07:15.904Z,65.65
2023-07-12T02:10:10.695Z,65.54
2023-07-12T02:12:38.026Z,65.08
2023-07-12T02:15:07.037Z,64.67
2023-07-12T02:17:35.190Z,63.74
2023-07-12T02:20:05.469Z,62.27
2023-07-12T02:22:35.726Z,61.83
2023-07-12T02:25:03.952Z,60.99
2023-07-12T02:27:31.131Z,61.36
2023-07-12T02:29:58.697Z,62.04
2023-07-12T02:32:28.293Z,62.42
2023-07-12T02:34:55.705Z,63.61
2023-07-12T02:37:26.678Z,63.45
2023-07-12T02:40:00.727Z,64.74
2023-07-12T02:42:36.045Z,64.70
2023-07-12T02:45:08.526Z,64.78
2023-07-12T02:47:38.605Z,65.21
2023-07-12T02:50:08.588Z,65.99
2023-07-12T02:52:35.843Z,66.22
2023-07-12T02:55:03.200Z,66.85
2023-07-12T02:57:30.276Z,66.55
2023-07-12T02:59:58.910Z,66.46
2023-07-12T03:02:28.474Z,66.34
2023-07-12T03:04:55.706Z,66.05
2023-07-12T03:07:23.960Z,65.96
2023-07-12T03:09:53.895Z,65.77
2023-07-12T03:12:20.933Z,65.40
2023-07-12T03:14:48.013Z,65.33
2023-07-12T03:17:15.164Z,65.82
2023-07-12T03:19:42.411Z,65.60
2023-07-12T03:22:09.457Z,64.15
2023-07-12T03:24:38.696Z,63.35
2023-07-12T03:27:06.176Z,62.89
2023-07-12T03:29:36.836Z,62.46
2023-07-12T03:32:05.501Z,62.04
2023-07-12T03:34:33.404Z,62.68
2023-07-12T03:37:01.717Z,62.94
2023-07-12T03:39:28.928Z,63.20
2023-07-12T03:41:56.188Z,63.39
2023-07-12T03:44:23.490Z,63.71
2023-07-12T03:46:50.746Z,63.36
2023-07-12T03:49:17.822Z,62.75
2023-07-12T03:51:45.115Z,63.07
2023-07-12T03:54:15.760Z,62.92
2023-07-12T03:56:42.985Z,63.02
2023-07-12T03:59:10.144Z,62.79
2023-07-12T04:01:37.869Z,63.18
2023-07-12T04:04:05.725Z,63.11
2023-07-12T04:06:33.940Z,63.28
2023-07-12T04:09:01.074Z,63.50
2023-07-12T04:11:30.688Z,63.25
2023-07-12T04:14:00.480Z,63.16
2023-07-12T04:16:27.843Z,62.83
2023-07-12T04:18:55.414Z,63.02
2023-07-12T04:21:22.873Z,63.37
2023-07-12T04:23:50.933Z,63.21
2023-07-12T04:26:19.407Z,62.30
2023-07-12T04:28:50.480Z,62.43
2023-07-12T04:31:19.767Z,61.92
2023-07-12T04:33:49.478Z,61.94
2023-07-12T04:36:19.908Z,62.34
2023-07-12T04:38:47.111Z,62.89
2023-07-12T04:41:14.341Z,62.81
2023-07-12T04:43:41.479Z,63.03
2023-07-12T04:46:09.217Z,63.48
2023-07-12T04:48:36.553Z,63.48
2023-07-12T04:51:05.088Z,63.31
2023-07-12T04:53:33.505Z,62.96
2023-07-12T04:56:01.060Z,63.09
2023-07-12T04:58:28.438Z,62.61
2023-07-12T05:00:57.005Z,62.36
2023-07-12T05:03:25.888Z,63.16
2023-07-12T05:05:53.565Z,63.59
2023-07-12T05:08:20.719Z,63.82
2023-07-12T05:10:49.387Z,65.25
2023-07-12T05:13:16.390Z,65.28
2023-07-12T05:15:51.746Z,65.74
2023-07-12T05:18:19.527Z,64.26
2023-07-12T05:20:46.759Z,64.06
2023-07-12T05:23:14.000Z,65.39
2023-07-12T05:25:48.928Z,66.85
2023-07-12T05:28:16.962Z,65.92
2023-07-12T05:30:44.240Z,66.36
2023-07-12T05:33:11.755Z,68.09
2023-07-12T05:35:39.095Z,69.30
2023-07-12T05:38:06.092Z,67.08
2023-07-12T05:40:33.647Z,65.21
2023-07-12T05:43:01.191Z,64.76
2023-07-12T05:45:28.720Z,66.44
2023-07-12T05:47:55.785Z,66.02
2023-07-12T05:50:22.961Z,66.36
2023-07-12T05:52:50.228Z,67.48
2023-07-12T05:55:19.527Z,67.55
2023-07-12T05:57:47.678Z,66.39
2023-07-12T06:00:15.333Z,64.40
2023-07-12T06:02:42.577Z,59.68
2023-07-12T06:05:09.878Z,57.30
2023-07-12T06:07:37.080Z,55.68
2023-07-12T06:10:04.518Z,54.26
2023-07-12T06:12:31.713Z,52.61
2023-07-12T06:14:58.754Z,51.96
2023-07-12T06:17:26.401Z,51.79
2023-07-12T06:19:53.640Z,51.62
2023-07-12T06:22:20.830Z,51.39
2023-07-12T06:24:47.950Z,51.39
2023-07-12T06:27:15.193Z,50.77
2023-07-12T06:29:43.199Z,51.11
2023-07-12T06:32:12.291Z,50.50
2023-07-12T06:34:39.961Z,50.70
2023-07-12T06:37:10.462Z,49.50
2023-07-12T06:39:38.198Z,47.53
2023-07-12T06:42:06.186Z,47.88
2023-07-12T06:44:34.468Z,47.64
2023-07-12T06:47:01.845Z,46.06
2023-07-12T06:49:29.057Z,47.30
2023-07-12T06:51:56.419Z,48.57
2023-07-12T06:54:23.601Z,47.89
2023-07-12T06:56:50.679Z,48.96
2023-07-12T06:59:17.824Z,49.65
2023-07-12T07:01:44.850Z,49.72
2023-07-12T07:04:11.917Z,50.70
2023-07-12T07:06:39.166Z,51.11
2023-07-12T07:09:06.603Z,50.75
2023-07-12T07:11:33.703Z,50.86
2023-07-12T07:14:00.778Z,50.39
2023-07-12T07:16:28.188Z,50.58
2023-07-12T07:18:55.568Z,50.56
2023-07-12T07:21:22.707Z,51.22
2023-07-12T07:23:50.174Z,52.78
2023-07-12T07:26:17.677Z,53.72
2023-07-12T07:28:44.810Z,54.12
2023-07-12T07:31:12.621Z,53.28
2023-07-12T07:33:40.919Z,53.88
2023-07-12T07:36:16.055Z,54.93
2023-07-12T07:38:43.328Z,54.07
2023-07-12T07:41:14.674Z,55.45
2023-07-12T07:43:42.279Z,55.26
2023-07-12T07:46:11.101Z,55.64
2023-07-12T07:48:38.612Z,57.22
2023-07-12T07:51:07.801Z,56.84
2023-07-12T07:53:34.885Z,56.74
2023-07-12T07:56:02.308Z,56.94
2023-07-12T07:58:29.478Z,57.00
2023-07-12T08:00:56.717Z,55.90
2023-07-12T08:03:24.229Z,56.87
2023-07-12T08:05:51.714Z,58.50
2023-07-12T08:08:20.849Z,59.15
2023-07-12T08:10:48.706Z,58.86
2023-07-12T08:13:15.897Z,60.03
2023-07-12T08:15:43.575Z,60.84
2023-07-12T08:18:12.695Z,61.04
2023-07-12T08:20:42.970Z,60.94
2023-07-12T08:23:10.270Z,59.92
2023-07-12T08:25:37.347Z,59.89
2023-07-12T08:28:04.638Z,59.79
2023-07-12T08:30:31.962Z,60.52
2023-07-12T08:32:59.512Z,61.27
2023-07-12T08:35:42.314Z,61.76
2023-07-12T08:38:14.311Z,62.09
2023-07-12T08:40:47.264Z,62.47
2023-07-12T08:43:18.543Z,62.09
2023-07-12T08:45:48.069Z,63.60
2023-07-12T08:48:21.805Z,62.69
2023-07-12T08:50:50.531Z,63.90
2023-07-12T08:53:26.128Z,63.74
2023-07-12T08:55:54.420Z,63.73
2023-07-12T08:58:28.658Z,64.16
2023-07-12T09:01:03.542Z,64.98
2023-07-12T09:03:30.956Z,65.37
2023-07-12T09:05:59.303Z,66.17
2023-07-12T09:08:36.696Z,66.62
2023-07-12T09:11:04.306Z,66.73
2023-07-12T09:13:36.926Z,65.22
2023-07-12T09:16:05.263Z,66.50
2023-07-12T09:18:38.159Z,67.99
2023-07-12T09:21:18.018Z,67.56
2023-07-12T09:23:46.080Z,69.06
2023-07-12T09:26:23.832Z,68.99
2023-07-12T09:28:51.825Z,70.87
2023-07-12T09:31:25.560Z,72.35
2023-07-12T09:33:59.040Z,69.73
2023-07-12T09:36:26.949Z,72.16
2023-07-12T09:39:00.413Z,74.28
2023-07-12T09:41:28.944Z,73.88
2023-07-12T09:44:01.330Z,76.11
2023-07-12T09:46:28.441Z,74.60
2023-07-12T09:49:06.239Z,75.00
2023-07-12T09:52:10.509Z,77.96
2023-07-12T09:54:59.261Z,77.65
2023-07-12T09:58:15.543Z,78.45
2023-07-12T10:01:01.727Z,77.72
2023-07-12T10:03:37.485Z,77.37
2023-07-12T10:06:21.836Z,75.25
2023-07-12T10:08:58.202Z,74.10
2023-07-12T10:11:55.469Z,73.53
2023-07-12T10:14:32.877Z,73.30
2023-07-12T10:17:00.061Z,74.87
2023-07-12T10:19:34.710Z,75.40
2023-07-12T10:22:24.341Z,76.17
2023-07-12T10:24:54.020Z,75.66
2023-07-12T10:27:25.066Z,73.61
2023-07-12T10:30:05.598Z,74.42
2023-07-12T10:32:43.498Z,74.38
2023-07-12T10:35:16.641Z,74.55
2023-07-12T10:38:04.633Z,76.34
2023-07-12T10:40:38.698Z,74.92
2023-07-12T10:43:14.000Z,73.92
2023-07-12T10:45:41.397Z,73.10
2023-07-12T10:48:11.127Z,70.11
2023-07-12T10:50:49.735Z,73.14
2023-07-12T10:53:35.522Z,75.25
2023-07-12T10:56:18.778Z,73.60
2023-07-12T10:58:52.383Z,73.83
2023-07-12T11:01:41.776Z,71.09
2023-07-12T11:04:26.032Z,69.67
2023-07-12T11:07:00.861Z,67.08
2023-07-12T11:09:50.613Z,69.78
2023-07-12T11:12:32.331Z,70.26
2023-07-12T11:15:08.210Z,68.75
2023-07-12T11:18:01.305Z,68.78
2023-07-12T11:20:32.012Z,68.46
2023-07-12T11:23:08.538Z,70.31
2023-07-12T11:25:45.768Z,71.46
2023-07-12T11:28:22.171Z,73.02
2023-07-12T11:31:28.375Z,72.56
2023-07-12T11:34:18.867Z,72.39
2023-07-12T11:36:53.683Z,71.00
2023-07-12T11:39:24.019Z,70.46
2023-07-12T11:42:05.071Z,69.84
2023-07-12T11:44:32.199Z,71.07
2023-07-12T11:47:00.247Z,71.26
2023-07-12T11:49:30.010Z,71.68
2023-07-12T11:52:05.998Z,69.51
2023-07-12T11:54:41.644Z,72.02
2023-07-12T11:57:15.526Z,71.25
2023-07-12T11:59:46.489Z,70.41
2023-07-12T12:02:17.408Z,70.81
2023-07-12T12:04:49.412Z,71.46
2023-07-12T12:07:50.469Z,72.12
2023-07-12T12:10:27.075Z,72.44
2023-07-12T12:12:55.732Z,73.54
2023-07-12T12:15:29.955Z,72.94
2023-07-12T12:17:59.062Z,72.71
2023-07-12T12:20:30.561Z,72.54
2023-07-12T12:23:12.978Z,73.29
2023-07-12T12:25:53.440Z,73.96
2023-07-12T12:28:29.681Z,74.11
2023-07-12T12:31:16.335Z,73.49
2023-07-12T12:33:52.037Z,74.26
2023-07-12T12:36:28.567Z,74.15
2023-07-12T12:39:06.788Z,74.99
2023-07-12T12:41:36.805Z,74.44
2023-07-12T12:44:09.074Z,74.03
2023-07-12T12:54:28.200Z,75.05
2023-07-12T13:22:00.987Z,73.93
2023-07-12T13:24:28.366Z,71.34
2023-07-12T13:26:56.824Z,73.51
2023-07-12T13:29:24.098Z,72.02
2023-07-12T13:31:51.264Z,72.64
2023-07-12T13:34:20.632Z,71.77
2023-07-12T13:36:49.354Z,70.14
2023-07-12T13:46:53.837Z,72.26
2023-07-12T13:49:20.934Z,71.37
2023-07-12T13:51:48.550Z,72.55
2023-07-12T13:54:17.617Z,71.17
2023-07-12T13:56:48.058Z,70.08
2023-07-12T13:59:18.013Z,69.25
2023-07-12T14:01:48.038Z,71.26
2023-07-12T14:04:33.066Z,70.26
2023-07-12T14:07:17.626Z,72.07
2023-07-12T14:10:04.006Z,71.51
2023-07-12T14:12:37.372Z,72.59
2023-07-12T14:15:05.951Z,72.55
2023-07-12T14:17:33.843Z,74.13
2023-07-12T14:20:01.935Z,74.40
2023-07-12T14:22:31.795Z,73.87
2023-07-12T14:24:59.874Z,74.92
2023-07-12T14:27:30.242Z,73.44
2023-07-12T14:32:33.987Z,74.90
2023-07-12T14:35:05.290Z,74.25
2023-07-12T14:37:34.319Z,74.33
2023-07-12T14:40:01.757Z,72.82
2023-07-12T14:42:31.605Z,73.96
2023-07-12T14:44:59.266Z,72.60
2023-07-12T14:47:27.268Z,73.99
2023-07-12T14:49:55.413Z,75.59
2023-07-12T14:52:33.180Z,75.61
2023-07-12T14:55:02.373Z,76.04
2023-07-12T14:57:55.337Z,76.60
2023-07-12T15:00:20.524Z,77.52
2023-07-12T15:02:53.168Z,76.40
2023-07-12T15:05:20.552Z,78.46
2023-07-12T15:07:47.920Z,78.82
2023-07-12T15:10:21.262Z,77.93
2023-07-12T15:12:52.736Z,79.26
2023-07-12T15:15:28.863Z,77.10
2023-07-12T15:18:05.250Z,75.94
2023-07-12T15:20:35.565Z,74.57
2023-07-12T15:23:03.161Z,75.20
2023-07-12T15:25:32.001Z,75.84
2023-07-12T15:27:59.415Z,76.58
2023-07-12T15:30:30.813Z,75.67
2023-07-12T15:32:58.567Z,76.07
2023-07-12T15:35:37.107Z,75.81
2023-07-12T15:38:06.430Z,76.06
2023-07-12T15:40:56.991Z,75.19
2023-07-12T15:43:32.934Z,75.12
2023-07-12T15:46:01.774Z,73.48
2023-07-12T15:48:32.217Z,74.43
2023-07-12T15:51:08.332Z,74.23
2023-07-12T15:53:37.421Z,73.54
2023-07-12T15:56:05.495Z,73.67
2023-07-12T15:58:33.723Z,72.54
2023-07-12T16:01:04.535Z,74.08
2023-07-12T16:03:37.680Z,74.10
2023-07-12T16:06:08.157Z,74.82
2023-07-12T16:08:35.837Z,75.50
2023-07-12T16:11:17.738Z,74.10
2023-07-12T16:16:24.053Z,75.86
2023-07-12T16:18:52.453Z,76.26
2023-07-12T16:21:26.660Z,76.83
2023-07-12T16:23:55.346Z,76.92
2023-07-12T16:26:30.176Z,77.63
2023-07-12T16:28:59.518Z,76.82
2023-07-12T16:31:32.587Z,76.33
2023-07-12T16:34:01.086Z,75.68
2023-07-12T16:36:29.583Z,74.36
2023-07-12T16:38:56.803Z,74.85
2023-07-12T16:41:30.680Z,75.27
2023-07-12T16:43:59.339Z,75.49
2023-07-12T16:46:27.941Z,75.40
2023-07-12T16:48:55.321Z,75.90
2023-07-12T16:51:25.280Z,76.55
2023-07-12T16:53:52.598Z,77.13
2023-07-12T16:56:22.095Z,77.21
2023-07-12T16:58:49.793Z,77.41
2023-07-12T17:01:27.705Z,76.29
2023-07-12T17:03:55.808Z,75.31
2023-07-12T17:06:23.689Z,75.01
2023-07-12T17:08:51.898Z,72.56
2023-07-12T17:11:29.197Z,71.24
2023-07-12T17:13:56.606Z,68.48
2023-07-12T17:16:24.590Z,66.47
2023-07-12T17:18:51.835Z,67.57
2023-07-12T17:21:21.002Z,67.69
2023-07-12T17:23:49.754Z,65.75
2023-07-12T17:26:19.820Z,66.39
2023-07-12T17:29:43.119Z,66.25
2023-07-12T17:32:32.090Z,67.81
2023-07-12T17:34:59.226Z,66.48
2023-07-12T17:37:26.808Z,66.51
2023-07-12T17:40:06.744Z,66.51
2023-07-12T17:42:35.879Z,65.91
2023-07-12T17:45:04.019Z,64.65
2023-07-12T17:47:33.279Z,64.76
2023-07-12T17:50:00.393Z,64.48
2023-07-12T17:52:32.357Z,63.63
2023-07-12T17:54:59.752Z,63.26
2023-07-12T17:57:28.525Z,62.96
2023-07-12T17:59:56.125Z,63.00
2023-07-12T18:02:26.947Z,62.57
2023-07-12T18:04:54.225Z,62.95
2023-07-12T18:07:25.948Z,62.75
2023-07-12T18:09:54.165Z,62.75
2023-07-12T18:12:23.403Z,62.38
2023-07-12T18:14:51.574Z,62.13
2023-07-12T18:17:21.865Z,62.49
2023-07-12T18:19:50.071Z,62.51
2023-07-12T18:22:21.953Z,62.32
2023-07-12T18:24:49.897Z,61.80
2023-07-12T18:27:22.116Z,62.09
2023-07-12T18:29:49.280Z,61.82
2023-07-12T18:32:22.741Z,63.03
2023-07-12T18:34:52.821Z,62.54
2023-07-12T18:37:22.041Z,62.85
2023-07-12T18:39:55.670Z,63.42
2023-07-12T18:42:27.948Z,63.61
2023-07-12T18:44:55.185Z,64.33
2023-07-12T18:47:22.828Z,64.56
2023-07-12T18:49:52.556Z,65.26
2023-07-12T18:52:25.894Z,65.53
2023-07-12T18:54:53.039Z,66.43
2023-07-12T18:57:20.794Z,67.07
2023-07-12T18:59:50.005Z,67.65
2023-07-12T19:02:22.473Z,67.64
2023-07-12T19:04:50.294Z,68.01
2023-07-12T19:07:23.838Z,68.48
2023-07-12T19:09:51.637Z,68.46
2023-07-12T19:12:21.418Z,68.51
2023-07-12T19:14:50.286Z,68.88
2023-07-12T19:17:19.752Z,69.24
2023-07-12T19:19:49.544Z,69.96
2023-07-12T19:22:20.137Z,69.92
2023-07-12T19:24:49.087Z,69.87
2023-07-12T19:27:34.109Z,68.55
2023-07-12T19:30:16.620Z,68.45
2023-07-12T19:32:44.098Z,68.33
2023-07-12T19:35:33.940Z,67.78
2023-07-12T19:38:02.360Z,67.30
2023-07-12T19:40:29.456Z,67.01
2023-07-12T19:42:58.022Z,66.30
2023-07-12T19:45:29.401Z,66.19
2023-07-12T19:47:58.375Z,66.02
2023-07-12T19:50:29.473Z,66.25
2023-07-12T19:52:56.558Z,66.20
2023-07-12T19:55:28.568Z,66.37
2023-07-12T19:57:56.213Z,66.22
2023-07-12T20:00:25.851Z,66.71
2023-07-12T20:02:52.958Z,66.74
2023-07-12T20:05:20.152Z,66.81
2023-07-12T20:07:48.313Z,66.83
2023-07-12T20:10:16.571Z,66.92
2023-07-12T20:12:44.579Z,66.73
2023-07-12T20:15:14.450Z,66.35
2023-07-12T20:17:41.815Z,66.35
2023-07-12T20:20:14.706Z,65.93
2023-07-12T20:22:42.838Z,66.23
2023-07-12T20:25:13.684Z,66.49
2023-07-12T20:27:40.755Z,66.79
2023-07-12T20:30:10.960Z,66.84
2023-07-12T20:32:38.656Z,66.69
2023-07-12T20:35:06.144Z,67.26
2023-07-12T20:37:33.256Z,67.91
2023-07-12T20:40:00.793Z,69.13
2023-07-12T20:42:29.363Z,70.41
2023-07-12T20:44:56.437Z,71.45
2023-07-12T20:47:23.716Z,72.18
2023-07-12T20:49:56.378Z,72.84
2023-07-12T20:52:24.812Z,73.47
2023-07-12T20:54:52.366Z,73.66
2023-07-12T20:57:21.303Z,73.60
2023-07-12T20:59:49.649Z,74.21
2023-07-12T21:02:16.780Z,75.08
2023-07-12T21:04:44.117Z,75.31
2023-07-12T21:07:11.138Z,75.66
2023-07-12T21:09:38.940Z,75.92
2023-07-12T21:12:06.295Z,75.66
2023-07-12T21:14:33.869Z,75.80
2023-07-12T21:17:00.999Z,76.23
2023-07-12T21:19:28.034Z,76.71
2023-07-12T21:21:54.996Z,77.05
2023-07-12T21:24:22.003Z,77.21
2023-07-12T21:26:49.175Z,78.11
2023-07-12T21:29:16.141Z,78.96
2023-07-12T21:31:43.342Z,79.90
2023-07-12T21:34:10.285Z,81.22
2023-07-12T21:36:37.635Z,83.09
2023-07-12T21:39:05.281Z,83.86
2023-07-12T21:41:32.406Z,85.09
2023-07-12T21:43:59.547Z,86.31
2023-07-12T21:46:26.702Z,86.50
2023-07-12T21:48:53.746Z,86.90
2023-07-12T21:51:22.204Z,87.96
2023-07-12T21:53:49.595Z,88.01
2023-07-12T21:56:16.683Z,87.54
2023-07-12T21:58:43.716Z,87.47
2023-07-12T22:01:11.254Z,87.52
2023-07-12T22:03:38.489Z,86.57
2023-07-12T22:06:06.206Z,85.78
2023-07-12T22:08:39.505Z,85.98
2023-07-12T22:11:18.499Z,85.99
2023-07-12T22:13:47.715Z,85.05
2023-07-12T22:16:15.760Z,83.43
2023-07-12T22:18:48.573Z,81.75
2023-07-12T22:21:18.874Z,80.81
2023-07-12T22:23:45.999Z,80.43
2023-07-12T22:26:16.267Z,79.91
2023-07-12T22:28:44.306Z,78.64
2023-07-12T22:31:12.701Z,77.85
2023-07-12T22:33:41.192Z,78.25
2023-07-12T22:36:08.741Z,78.36
2023-07-12T22:38:36.454Z,78.10
2023-07-12T22:41:05.108Z,78.70
2023-07-12T22:43:33.705Z,78.40
2023-07-12T22:46:08.082Z,78.18
2023-07-12T22:48:36.835Z,77.51
2023-07-12T22:51:03.956Z,77.18
2023-07-12T22:53:31.822Z,76.95
2023-07-12T22:56:04.062Z,77.25
2023-07-12T22:58:32.075Z,76.75
2023-07-12T23:01:00.307Z,76.53
2023-07-12T23:03:27.837Z,76.83
2023-07-12T23:05:57.758Z,76.65
2023-07-12T23:08:27.292Z,76.31
2023-07-12T23:10:55.204Z,76.14
2023-07-12T23:13:24.369Z,76.38
2023-07-12T23:15:52.140Z,76.51
2023-07-12T23:18:22.520Z,76.81
2023-07-12T23:20:52.395Z,77.57
2023-07-12T23:23:23.906Z,78.06
2023-07-12T23:25:51.450Z,79.19
2023-07-12T23:28:18.619Z,79.50
2023-07-12T23:30:45.806Z,79.75
2023-07-12T23:33:12.950Z,81.77
2023-07-12T23:35:40.129Z,82.29
2023-07-12T23:38:07.228Z,83.83
2023-07-12T23:40:34.349Z,84.51
2023-07-12T23:43:01.431Z,85.30
2023-07-12T23:45:35.935Z,86.01
2023-07-12T23:48:04.028Z,86.75
2023-07-12T23:50:34.370Z,87.78
2023-07-12T23:53:02.309Z,88.00
2023-07-12T23:55:31.503Z,88.73
2023-07-12T23:57:59.337Z,88.50
